sensor_id;sensor_type;location;lat;lon;timestamp;pressure;altitude;pressure_sealevel;temperature;humidity
64115;BME280;62188;35.640;139.748;2022-10-17T00:00:56;101174.45;;;25.41;45.75
64115;BME280;62188;35.640;139.748;2022-10-17T00:03:22;101170.38;;;25.41;45.56
64115;BME280;62188;35.640;139.748;2022-10-17T00:05:48;101167.23;;;25.40;45.85
64115;BME280;62188;35.640;139.748;2022-10-17T00:08:14;101152.81;;;25.77;45.79
64115;BME280;62188;35.640;139.748;2022-10-17T00:10:39;101144.65;;;25.50;45.47
64115;BME280;62188;35.640;139.748;2022-10-17T00:13:05;101149.24;;;25.85;45.43
64115;BME280;62188;35.640;139.748;2022-10-17T00:15:29;101143.97;;;25.58;45.39
64115;BME280;62188;35.640;139.748;2022-10-17T00:17:56;101138.96;;;25.80;45.33
64115;BME280;62188;35.640;139.748;2022-10-17T00:20:20;101130.54;;;25.31;45.31
64115;BME280;62188;35.640;139.748;2022-10-17T00:22:45;101129.45;;;25.37;45.33
64115;BME280;62188;35.640;139.748;2022-10-17T00:25:11;101120.60;;;25.41;45.30
64115;BME280;62188;35.640;139.748;2022-10-17T00:27:36;101121.04;;;25.39;45.38
64115;BME280;62188;35.640;139.748;2022-10-17T00:30:02;101117.24;;;25.88;45.06
64115;BME280;62188;35.640;139.748;2022-10-17T00:32:27;101110.10;;;25.61;45.25
64115;BME280;62188;35.640;139.748;2022-10-17T00:34:53;101096.42;;;25.39;45.18
64115;BME280;62188;35.640;139.748;2022-10-17T00:37:18;101086.47;;;25.42;45.09
64115;BME280;62188;35.640;139.748;2022-10-17T00:39:43;101085.87;;;25.68;44.94
64115;BME280;62188;35.640;139.748;2022-10-17T00:42:17;101082.88;;;25.71;44.94
64115;BME280;62188;35.640;139.748;2022-10-17T00:47:00;101078.71;;;25.75;44.95
64115;BME280;62188;35.640;139.748;2022-10-17T00:49:38;101077.13;;;25.76;45.01
64115;BME280;62188;35.640;139.748;2022-10-17T00:51:59;101077.22;;;25.67;44.82
64115;BME280;62188;35.640;139.748;2022-10-17T00:54:16;101077.86;;;25.38;44.95
64115;BME280;62188;35.640;139.748;2022-10-17T00:56:41;101073.34;;;25.83;45.00
64115;BME280;62188;35.640;139.748;2022-10-17T00:59:07;101074.74;;;25.51;44.90
64115;BME280;62188;35.640;139.748;2022-10-17T01:01:36;101076.86;;;25.45;45.07
64115;BME280;62188;35.640;139.748;2022-10-17T01:03:58;101074.21;;;25.63;45.22
64115;BME280;62188;35.640;139.748;2022-10-17T01:06:27;101072.03;;;25.35;45.30
64115;BME280;62188;35.640;139.748;2022-10-17T01:08:48;101078.14;;;25.10;45.40
64115;BME280;62188;35.640;139.748;2022-10-17T01:11:25;101081.22;;;25.62;45.60
64115;BME280;62188;35.640;139.748;2022-10-17T01:13:45;101083.58;;;25.39;45.55
64115;BME280;62188;35.640;139.748;2022-10-17T01:16:10;101090.82;;;25.01;45.65
64115;BME280;62188;35.640;139.748;2022-10-17T01:18:41;101088.30;;;25.50;45.77
64115;BME280;62188;35.640;139.748;2022-10-17T01:21:07;101084.95;;;25.03;45.79
64115;BME280;62188;35.640;139.748;2022-10-17T01:25:52;101078.10;;;25.18;45.50
64115;BME280;62188;35.640;139.748;2022-10-17T01:28:20;101086.52;;;25.36;45.48
64115;BME280;62188;35.640;139.748;2022-10-17T01:30:44;101081.82;;;25.11;45.46
64115;BME280;62188;35.640;139.748;2022-10-17T01:33:06;101075.21;;;25.32;45.46
64115;BME280;62188;35.640;139.748;2022-10-17T01:35:30;101071.26;;;25.29;45.51
64115;BME280;62188;35.640;139.748;2022-10-17T01:37:58;101058.61;;;25.52;45.48
64115;BME280;62188;35.640;139.748;2022-10-17T01:40:24;101048.08;;;25.53;45.34
64115;BME280;62188;35.640;139.748;2022-10-17T01:42:52;101034.45;;;25.27;45.46
64115;BME280;62188;35.640;139.748;2022-10-17T01:45:15;101032.36;;;25.32;45.58
64115;BME280;62188;35.640;139.748;2022-10-17T01:47:35;101025.53;;;25.31;45.61
64115;BME280;62188;35.640;139.748;2022-10-17T01:50:03;101019.42;;;25.30;45.68
64115;BME280;62188;35.640;139.748;2022-10-17T01:52:29;101001.39;;;25.25;45.73
64115;BME280;62188;35.640;139.748;2022-10-17T01:54:54;100987.82;;;25.01;45.68
64115;BME280;62188;35.640;139.748;2022-10-17T01:57:23;100983.22;;;25.09;45.85
64115;BME280;62188;35.640;139.748;2022-10-17T01:59:45;100983.39;;;25.43;45.84
64115;BME280;62188;35.640;139.748;2022-10-17T02:02:09;100987.15;;;25.51;45.77
64115;BME280;62188;35.640;139.748;2022-10-17T02:04:34;100971.49;;;25.55;45.67
64115;BME280;62188;35.640;139.748;2022-10-17T02:07:07;100963.07;;;25.32;45.39
64115;BME280;62188;35.640;139.748;2022-10-17T02:09:26;100962.01;;;25.54;45.45
64115;BME280;62188;35.640;139.748;2022-10-17T02:12:10;100957.60;;;25.54;45.57
64115;BME280;62188;35.640;139.748;2022-10-17T02:14:24;100943.79;;;25.14;45.64
64115;BME280;62188;35.640;139.748;2022-10-17T02:16:46;100938.49;;;25.42;45.67
64115;BME280;62188;35.640;139.748;2022-10-17T02:21:37;100930.84;;;25.26;45.48
64115;BME280;62188;35.640;139.748;2022-10-17T02:24:03;100933.81;;;25.52;45.43
64115;BME280;62188;35.640;139.748;2022-10-17T02:26:27;100924.90;;;25.54;45.29
64115;BME280;62188;35.640;139.748;2022-10-17T02:28:53;100929.44;;;25.31;45.14
64115;BME280;62188;35.640;139.748;2022-10-17T02:31:16;100926.52;;;25.81;45.06
64115;BME280;62188;35.640;139.748;2022-10-17T02:33:42;100928.27;;;25.61;45.11
64115;BME280;62188;35.640;139.748;2022-10-17T02:36:10;100927.40;;;25.63;45.16
64115;BME280;62188;35.640;139.748;2022-10-17T02:38:31;100914.16;;;25.64;45.26
64115;BME280;62188;35.640;139.748;2022-10-17T02:40:55;100912.62;;;25.66;45.41
64115;BME280;62188;35.640;139.748;2022-10-17T02:43:21;100915.68;;;25.91;45.42
64115;BME280;62188;35.640;139.748;2022-10-17T02:45:46;100919.12;;;25.42;45.57
64115;BME280;62188;35.640;139.748;2022-10-17T02:48:15;100909.25;;;25.41;45.61
64115;BME280;62188;35.640;139.748;2022-10-17T02:50:44;100907.17;;;25.91;45.68
64115;BME280;62188;35.640;139.748;2022-10-17T02:53:06;100904.52;;;25.87;45.56
64115;BME280;62188;35.640;139.748;2022-10-17T02:55:31;100909.17;;;25.76;45.59
64115;BME280;62188;35.640;139.748;2022-10-17T02:57:55;100903.65;;;25.19;45.91
64115;BME280;62188;35.640;139.748;2022-10-17T03:00:20;100894.17;;;25.66;46.02
64115;BME280;62188;35.640;139.748;2022-10-17T03:02:45;100889.47;;;25.16;46.18
64115;BME280;62188;35.640;139.748;2022-10-17T03:05:13;100883.47;;;25.63;46.15
64115;BME280;62188;35.640;139.748;2022-10-17T03:07:34;100876.80;;;25.60;46.07
64115;BME280;62188;35.640;139.748;2022-10-17T03:10:00;100870.24;;;25.59;46.13
64115;BME280;62188;35.640;139.748;2022-10-17T03:12:25;100865.47;;;25.35;46.15
64115;BME280;62188;35.640;139.748;2022-10-17T03:14:50;100865.89;;;25.56;46.22
64115;BME280;62188;35.640;139.748;2022-10-17T03:17:16;100866.57;;;25.32;46.21
64115;BME280;62188;35.640;139.748;2022-10-17T03:19:41;100869.20;;;25.58;46.25
64115;BME280;62188;35.640;139.748;2022-10-17T03:22:07;100869.72;;;25.59;46.30
64115;BME280;62188;35.640;139.748;2022-10-17T03:24:32;100874.17;;;25.63;46.25
64115;BME280;62188;35.640;139.748;2022-10-17T03:26:58;100882.10;;;25.63;46.25
64115;BME280;62188;35.640;139.748;2022-10-17T03:29:23;100882.24;;;25.63;46.22
64115;BME280;62188;35.640;139.748;2022-10-17T03:31:49;100879.66;;;25.58;46.24
64115;BME280;62188;35.640;139.748;2022-10-17T03:34:14;100872.30;;;25.38;46.32
64115;BME280;62188;35.640;139.748;2022-10-17T03:36:39;100862.87;;;25.61;46.45
64115;BME280;62188;35.640;139.748;2022-10-17T03:39:04;100851.52;;;25.68;46.46
64115;BME280;62188;35.640;139.748;2022-10-17T03:41:30;100843.93;;;25.70;46.21
64115;BME280;62188;35.640;139.748;2022-10-17T03:43:55;100843.96;;;25.66;45.94
64115;BME280;62188;35.640;139.748;2022-10-17T03:46:21;100835.99;;;25.43;46.10
64115;BME280;62188;35.640;139.748;2022-10-17T03:48:47;100834.50;;;25.46;46.05
64115;BME280;62188;35.640;139.748;2022-10-17T03:51:13;100825.46;;;25.74;46.13
64115;BME280;62188;35.640;139.748;2022-10-17T03:53:38;100822.69;;;25.51;46.13
64115;BME280;62188;35.640;139.748;2022-10-17T03:56:09;100817.59;;;25.76;46.12
64115;BME280;62188;35.640;139.748;2022-10-17T03:58:29;100816.46;;;25.51;46.12
64115;BME280;62188;35.640;139.748;2022-10-17T04:00:55;100808.66;;;25.50;46.15
64115;BME280;62188;35.640;139.748;2022-10-17T04:03:20;100811.32;;;25.72;46.21
64115;BME280;62188;35.640;139.748;2022-10-17T04:05:46;100812.04;;;25.66;46.13
64115;BME280;62188;35.640;139.748;2022-10-17T04:08:11;100810.40;;;25.56;46.12
64115;BME280;62188;35.640;139.748;2022-10-17T04:10:37;100808.10;;;25.46;46.04
64115;BME280;62188;35.640;139.748;2022-10-17T04:13:02;100813.75;;;25.20;46.39
64115;BME280;62188;35.640;139.748;2022-10-17T04:15:29;100820.12;;;25.37;46.42
64115;BME280;62188;35.640;139.748;2022-10-17T04:17:54;100821.25;;;25.34;46.57
64115;BME280;62188;35.640;139.748;2022-10-17T04:20:19;100816.72;;;25.35;46.64
64115;BME280;62188;35.640;139.748;2022-10-17T04:22:44;100805.86;;;25.40;46.87
64115;BME280;62188;35.640;139.748;2022-10-17T04:25:10;100793.23;;;25.41;46.86
64115;BME280;62188;35.640;139.748;2022-10-17T04:27:35;100777.22;;;25.50;47.37
64115;BME280;62188;35.640;139.748;2022-10-17T04:30:00;100763.72;;;25.30;47.35
64115;BME280;62188;35.640;139.748;2022-10-17T04:32:26;100758.16;;;25.58;47.21
64115;BME280;62188;35.640;139.748;2022-10-17T04:34:51;100747.59;;;25.57;46.95
64115;BME280;62188;35.640;139.748;2022-10-17T04:37:16;100734.15;;;25.55;46.80
64115;BME280;62188;35.640;139.748;2022-10-17T04:39:41;100726.02;;;25.23;46.84
64115;BME280;62188;35.640;139.748;2022-10-17T04:42:07;100720.20;;;25.16;46.95
64115;BME280;62188;35.640;139.748;2022-10-17T04:44:32;100717.19;;;25.33;46.96
64115;BME280;62188;35.640;139.748;2022-10-17T04:46:57;100710.19;;;25.15;47.01
64115;BME280;62188;35.640;139.748;2022-10-17T04:49:22;100711.15;;;25.44;46.95
64115;BME280;62188;35.640;139.748;2022-10-17T04:51:48;100710.35;;;25.48;46.98
64115;BME280;62188;35.640;139.748;2022-10-17T04:54:14;100699.41;;;25.42;47.17
64115;BME280;62188;35.640;139.748;2022-10-17T04:56:39;100703.86;;;25.45;47.29
64115;BME280;62188;35.640;139.748;2022-10-17T04:59:05;100712.57;;;25.49;47.27
64115;BME280;62188;35.640;139.748;2022-10-17T05:01:30;100726.32;;;25.25;47.29
64115;BME280;62188;35.640;139.748;2022-10-17T05:03:55;100741.57;;;25.47;47.53
64115;BME280;62188;35.640;139.748;2022-10-17T05:06:22;100743.83;;;25.49;47.51
64115;BME280;62188;35.640;139.748;2022-10-17T05:08:47;100733.01;;;25.29;47.48
64115;BME280;62188;35.640;139.748;2022-10-17T05:11:18;100722.83;;;25.54;47.41
64115;BME280;62188;35.640;139.748;2022-10-17T05:13:37;100717.80;;;25.44;47.34
64115;BME280;62188;35.640;139.748;2022-10-17T05:16:02;100702.68;;;25.42;47.22
64115;BME280;62188;35.640;139.748;2022-10-17T05:18:28;100703.49;;;25.44;47.14
64115;BME280;62188;35.640;139.748;2022-10-17T05:20:54;100709.05;;;25.49;46.99
64115;BME280;62188;35.640;139.748;2022-10-17T05:23:19;100721.74;;;25.20;47.19
64115;BME280;62188;35.640;139.748;2022-10-17T05:25:44;100728.22;;;25.26;47.60
64115;BME280;62188;35.640;139.748;2022-10-17T05:28:10;100713.66;;;25.42;47.88
64115;BME280;62188;35.640;139.748;2022-10-17T05:30:35;100701.70;;;25.24;47.82
64115;BME280;62188;35.640;139.748;2022-10-17T05:33:01;100709.97;;;25.13;48.06
64115;BME280;62188;35.640;139.748;2022-10-17T05:35:26;100705.46;;;25.11;48.24
64115;BME280;62188;35.640;139.748;2022-10-17T05:37:51;100701.16;;;25.22;48.17
64115;BME280;62188;35.640;139.748;2022-10-17T05:40:17;100693.23;;;25.32;48.01
64115;BME280;62188;35.640;139.748;2022-10-17T05:42:47;100684.09;;;25.37;47.87
64115;BME280;62188;35.640;139.748;2022-10-17T05:45:08;100688.23;;;25.39;47.84
64115;BME280;62188;35.640;139.748;2022-10-17T05:47:33;100694.04;;;25.46;47.83
64115;BME280;62188;35.640;139.748;2022-10-17T05:49:59;100685.43;;;25.52;47.75
64115;BME280;62188;35.640;139.748;2022-10-17T05:52:24;100675.19;;;25.54;47.89
64115;BME280;62188;35.640;139.748;2022-10-17T05:54:51;100657.80;;;25.63;47.84
64115;BME280;62188;35.640;139.748;2022-10-17T05:57:16;100641.99;;;25.58;47.73
64115;BME280;62188;35.640;139.748;2022-10-17T05:59:42;100634.69;;;25.25;47.82
64115;BME280;62188;35.640;139.748;2022-10-17T06:02:08;100646.19;;;25.21;47.95
64115;BME280;62188;35.640;139.748;2022-10-17T06:04:32;100658.09;;;25.13;47.93
64115;BME280;62188;35.640;139.748;2022-10-17T06:06:57;100664.28;;;25.25;48.13
64115;BME280;62188;35.640;139.748;2022-10-17T06:09:23;100677.69;;;24.92;48.28
64115;BME280;62188;35.640;139.748;2022-10-17T06:11:48;100678.12;;;25.14;48.30
64115;BME280;62188;35.640;139.748;2022-10-17T06:14:15;100672.36;;;25.14;48.36
64115;BME280;62188;35.640;139.748;2022-10-17T06:16:40;100665.88;;;25.15;48.43
64115;BME280;62188;35.640;139.748;2022-10-17T06:19:05;100673.03;;;25.13;48.49
64115;BME280;62188;35.640;139.748;2022-10-17T06:21:30;100669.25;;;25.12;48.55
64115;BME280;62188;35.640;139.748;2022-10-17T06:23:55;100664.75;;;24.65;48.52
64115;BME280;62188;35.640;139.748;2022-10-17T06:26:21;100671.08;;;24.91;48.51
64115;BME280;62188;35.640;139.748;2022-10-17T06:28:46;100674.63;;;25.15;48.64
64115;BME280;62188;35.640;139.748;2022-10-17T06:31:14;100666.81;;;25.21;48.58
64115;BME280;62188;35.640;139.748;2022-10-17T06:33:38;100661.95;;;25.23;48.59
64115;BME280;62188;35.640;139.748;2022-10-17T06:36:03;100661.68;;;25.25;48.55
64115;BME280;62188;35.640;139.748;2022-10-17T06:38:28;100670.65;;;25.27;48.44
64115;BME280;62188;35.640;139.748;2022-10-17T06:40:54;100673.88;;;25.33;48.26
64115;BME280;62188;35.640;139.748;2022-10-17T06:43:19;100675.51;;;25.31;48.32
64115;BME280;62188;35.640;139.748;2022-10-17T06:45:45;100679.25;;;25.28;48.58
64115;BME280;62188;35.640;139.748;2022-10-17T06:48:10;100664.89;;;25.34;48.35
64115;BME280;62188;35.640;139.748;2022-10-17T06:50:35;100660.47;;;25.16;48.36
64115;BME280;62188;35.640;139.748;2022-10-17T06:53:00;100662.55;;;25.39;48.38
64115;BME280;62188;35.640;139.748;2022-10-17T06:55:26;100667.75;;;25.41;48.51
64115;BME280;62188;35.640;139.748;2022-10-17T06:57:53;100665.08;;;25.20;48.44
64115;BME280;62188;35.640;139.748;2022-10-17T07:00:17;100667.18;;;25.48;48.26
64115;BME280;62188;35.640;139.748;2022-10-17T07:02:43;100664.96;;;25.44;48.26
64115;BME280;62188;35.640;139.748;2022-10-17T07:05:08;100661.06;;;25.35;48.61
64115;BME280;62188;35.640;139.748;2022-10-17T07:07:35;100665.33;;;25.19;48.53
64115;BME280;62188;35.640;139.748;2022-10-17T07:09:59;100666.28;;;25.21;48.55
64115;BME280;62188;35.640;139.748;2022-10-17T07:12:24;100657.59;;;25.27;48.51
64115;BME280;62188;35.640;139.748;2022-10-17T07:14:50;100654.50;;;25.54;48.51
64115;BME280;62188;35.640;139.748;2022-10-17T07:17:15;100652.75;;;25.56;48.49
64115;BME280;62188;35.640;139.748;2022-10-17T07:19:40;100655.49;;;25.58;48.50
64115;BME280;62188;35.640;139.748;2022-10-17T07:22:06;100657.18;;;25.62;48.41
64115;BME280;62188;35.640;139.748;2022-10-17T07:24:31;100658.27;;;25.18;48.32
64115;BME280;62188;35.640;139.748;2022-10-17T07:26:57;100660.11;;;25.41;48.37
64115;BME280;62188;35.640;139.748;2022-10-17T07:29:22;100661.50;;;25.66;48.43
64115;BME280;62188;35.640;139.748;2022-10-17T07:31:48;100658.16;;;25.71;48.42
64115;BME280;62188;35.640;139.748;2022-10-17T07:34:23;100659.20;;;25.47;48.40
64115;BME280;62188;35.640;139.748;2022-10-17T07:36:39;100659.87;;;25.68;48.38
64115;BME280;62188;35.640;139.748;2022-10-17T07:39:04;100662.76;;;25.67;48.44
64115;BME280;62188;35.640;139.748;2022-10-17T07:41:30;100661.73;;;25.46;48.55
64115;BME280;62188;35.640;139.748;2022-10-17T07:43:56;100657.36;;;25.47;48.44
64115;BME280;62188;35.640;139.748;2022-10-17T07:46:21;100646.65;;;25.25;48.41
64115;BME280;62188;35.640;139.748;2022-10-17T07:48:46;100646.07;;;25.24;48.32
64115;BME280;62188;35.640;139.748;2022-10-17T07:51:12;100641.11;;;25.73;48.13
64115;BME280;62188;35.640;139.748;2022-10-17T07:53:37;100630.71;;;25.73;48.00
64115;BME280;62188;35.640;139.748;2022-10-17T07:56:05;100633.97;;;25.50;47.77
64115;BME280;62188;35.640;139.748;2022-10-17T07:58:27;100645.37;;;25.74;47.79
64115;BME280;62188;35.640;139.748;2022-10-17T08:00:53;100653.17;;;25.25;47.95
64115;BME280;62188;35.640;139.748;2022-10-17T08:03:19;100657.28;;;25.24;48.09
64115;BME280;62188;35.640;139.748;2022-10-17T08:05:44;100658.66;;;25.72;48.29
64115;BME280;62188;35.640;139.748;2022-10-17T08:08:10;100653.60;;;25.67;48.37
64115;BME280;62188;35.640;139.748;2022-10-17T08:10:36;100649.69;;;25.40;48.38
64115;BME280;62188;35.640;139.748;2022-10-17T08:13:02;100654.93;;;25.29;48.44
64115;BME280;62188;35.640;139.748;2022-10-17T08:15:26;100655.02;;;25.48;48.50
64115;BME280;62188;35.640;139.748;2022-10-17T08:17:52;100655.72;;;25.44;48.77
64115;BME280;62188;35.640;139.748;2022-10-17T08:20:17;100651.13;;;25.44;48.83
64115;BME280;62188;35.640;139.748;2022-10-17T08:22:48;100652.24;;;25.33;48.99
64115;BME280;62188;35.640;139.748;2022-10-17T08:25:09;100655.17;;;25.30;49.34
64115;BME280;62188;35.640;139.748;2022-10-17T08:27:35;100660.26;;;25.28;49.32
64115;BME280;62188;35.640;139.748;2022-10-17T08:30:00;100669.33;;;25.26;49.31
64115;BME280;62188;35.640;139.748;2022-10-17T08:32:27;100671.91;;;25.27;49.53
64115;BME280;62188;35.640;139.748;2022-10-17T08:34:51;100669.61;;;25.03;49.64
64115;BME280;62188;35.640;139.748;2022-10-17T08:37:18;100664.67;;;25.25;49.51
64115;BME280;62188;35.640;139.748;2022-10-17T08:39:42;100660.08;;;25.22;49.61
64115;BME280;62188;35.640;139.748;2022-10-17T08:44:42;100650.46;;;25.21;49.64
64115;BME280;62188;35.640;139.748;2022-10-17T08:47:02;100644.26;;;25.19;49.57
64115;BME280;62188;35.640;139.748;2022-10-17T08:49:31;100648.70;;;25.13;49.56
64115;BME280;62188;35.640;139.748;2022-10-17T08:51:55;100657.52;;;25.09;49.84
64115;BME280;62188;35.640;139.748;2022-10-17T08:54:17;100660.58;;;25.31;49.83
64115;BME280;62188;35.640;139.748;2022-10-17T08:56:44;100666.13;;;25.07;49.80
64115;BME280;62188;35.640;139.748;2022-10-17T08:59:12;100663.54;;;25.08;49.90
64115;BME280;62188;35.640;139.748;2022-10-17T09:01:36;100653.96;;;25.08;49.77
64115;BME280;62188;35.640;139.748;2022-10-17T09:06:24;100672.05;;;25.14;49.72
64115;BME280;62188;35.640;139.748;2022-10-17T09:09:00;100677.29;;;25.10;49.69
64115;BME280;62188;35.640;139.748;2022-10-17T09:11:21;100684.09;;;25.13;49.66
64115;BME280;62188;35.640;139.748;2022-10-17T09:13:50;100689.55;;;25.07;49.59
64115;BME280;62188;35.640;139.748;2022-10-17T09:18:33;100697.77;;;25.03;49.64
64115;BME280;62188;35.640;139.748;2022-10-17T09:20:59;100696.53;;;25.03;49.57
64115;BME280;62188;35.640;139.748;2022-10-17T09:23:24;100692.01;;;25.05;49.57
64115;BME280;62188;35.640;139.748;2022-10-17T09:25:48;100693.87;;;25.05;49.42
64115;BME280;62188;35.640;139.748;2022-10-17T09:28:21;100687.15;;;25.01;49.27
64115;BME280;62188;35.640;139.748;2022-10-17T09:30:42;100679.00;;;24.93;49.12
64115;BME280;62188;35.640;139.748;2022-10-17T09:33:10;100677.51;;;24.83;49.12
64115;BME280;62188;35.640;139.748;2022-10-17T09:35:29;100682.68;;;24.57;49.25
64115;BME280;62188;35.640;139.748;2022-10-17T09:37:55;100691.02;;;24.77;49.28
64115;BME280;62188;35.640;139.748;2022-10-17T09:40:23;100702.67;;;24.90;49.25
64115;BME280;62188;35.640;139.748;2022-10-17T09:42:45;100692.06;;;24.96;49.32
64115;BME280;62188;35.640;139.748;2022-10-17T09:45:17;100688.78;;;24.74;49.06
64115;BME280;62188;35.640;139.748;2022-10-17T09:47:40;100688.58;;;24.73;48.80
64115;BME280;62188;35.640;139.748;2022-10-17T09:50:01;100689.11;;;24.99;48.95
64115;BME280;62188;35.640;139.748;2022-10-17T09:52:29;100696.69;;;24.76;49.02
64115;BME280;62188;35.640;139.748;2022-10-17T09:54:53;100701.55;;;24.74;48.79
64115;BME280;62188;35.640;139.748;2022-10-17T09:57:20;100704.10;;;24.71;48.56
64115;BME280;62188;35.640;139.748;2022-10-17T09:59:45;100694.87;;;24.65;48.45
64115;BME280;62188;35.640;139.748;2022-10-17T10:02:15;100695.75;;;24.58;48.37
64115;BME280;62188;35.640;139.748;2022-10-17T10:04:34;100706.02;;;24.81;48.40
64115;BME280;62188;35.640;139.748;2022-10-17T10:07:05;100712.10;;;24.82;48.31
64115;BME280;62188;35.640;139.748;2022-10-17T10:09:27;100712.98;;;24.60;48.48
64115;BME280;62188;35.640;139.748;2022-10-17T10:11:51;100711.37;;;24.61;48.40
64115;BME280;62188;35.640;139.748;2022-10-17T10:14:21;100709.94;;;24.50;47.91
64115;BME280;62188;35.640;139.748;2022-10-17T10:16:43;100710.84;;;24.40;47.77
64115;BME280;62188;35.640;139.748;2022-10-17T10:21:31;100702.93;;;24.40;48.02
64115;BME280;62188;35.640;139.748;2022-10-17T10:24:09;100706.37;;;24.40;48.16
64115;BME280;62188;35.640;139.748;2022-10-17T10:26:25;100709.25;;;24.35;48.06
64115;BME280;62188;35.640;139.748;2022-10-17T10:28:55;100710.52;;;24.36;48.15
64115;BME280;62188;35.640;139.748;2022-10-17T10:31:14;100708.68;;;24.56;47.93
64115;BME280;62188;35.640;139.748;2022-10-17T10:33:42;100703.63;;;24.73;47.66
64115;BME280;62188;35.640;139.748;2022-10-17T10:36:05;100698.69;;;24.41;47.60
64115;BME280;62188;35.640;139.748;2022-10-17T10:38:31;100695.83;;;24.17;48.51
64115;BME280;62188;35.640;139.748;2022-10-17T10:40:56;100688.47;;;24.20;48.31
64115;BME280;62188;35.640;139.748;2022-10-17T10:43:25;100684.02;;;24.60;48.69
64115;BME280;62188;35.640;139.748;2022-10-17T10:45:46;100681.99;;;24.50;48.86
64115;BME280;62188;35.640;139.748;2022-10-17T10:48:20;100678.73;;;24.20;48.70
64115;BME280;62188;35.640;139.748;2022-10-17T10:50:39;100671.69;;;24.39;48.68
64115;BME280;62188;35.640;139.748;2022-10-17T10:53:16;100667.14;;;24.34;48.69
64115;BME280;62188;35.640;139.748;2022-10-17T10:55:31;100669.27;;;24.02;49.27
64115;BME280;62188;35.640;139.748;2022-10-17T10:57:56;100680.56;;;24.24;49.77
64115;BME280;62188;35.640;139.748;2022-10-17T11:00:25;100696.61;;;24.26;48.83
64115;BME280;62188;35.640;139.748;2022-10-17T11:02:50;100704.43;;;24.17;48.12
64115;BME280;62188;35.640;139.748;2022-10-17T11:05:14;100707.33;;;23.92;48.59
64115;BME280;62188;35.640;139.748;2022-10-17T11:07:39;100707.09;;;23.86;48.41
64115;BME280;62188;35.640;139.748;2022-10-17T11:10:09;100701.57;;;24.07;48.47
64115;BME280;62188;35.640;139.748;2022-10-17T11:12:32;100695.72;;;24.02;48.96
64115;BME280;62188;35.640;139.748;2022-10-17T11:14:57;100691.45;;;23.82;48.74
64115;BME280;62188;35.640;139.748;2022-10-17T11:17:29;100683.96;;;24.10;49.06
64115;BME280;62188;35.640;139.748;2022-10-17T11:19:47;100676.74;;;24.16;49.55
64115;BME280;62188;35.640;139.748;2022-10-17T11:22:14;100674.93;;;24.19;50.55
64115;BME280;62188;35.640;139.748;2022-10-17T11:24:38;100679.17;;;24.29;49.41
64115;BME280;62188;35.640;139.748;2022-10-17T11:27:02;100682.47;;;24.37;50.15
64115;BME280;62188;35.640;139.748;2022-10-17T11:29:30;100686.50;;;24.54;50.54
64115;BME280;62188;35.640;139.748;2022-10-17T11:31:52;100682.89;;;24.64;50.16
64115;BME280;62188;35.640;139.748;2022-10-17T11:34:19;100678.17;;;24.67;49.05
64115;BME280;62188;35.640;139.748;2022-10-17T11:36:42;100679.05;;;24.63;48.71
64115;BME280;62188;35.640;139.748;2022-10-17T11:39:09;100674.43;;;24.64;48.31
64115;BME280;62188;35.640;139.748;2022-10-17T11:41:43;100678.51;;;24.37;47.59
64115;BME280;62188;35.640;139.748;2022-10-17T11:43:58;100681.49;;;24.30;47.96
64115;BME280;62188;35.640;139.748;2022-10-17T11:46:23;100678.93;;;24.48;47.47
64115;BME280;62188;35.640;139.748;2022-10-17T11:48:57;100679.61;;;24.08;47.40
64115;BME280;62188;35.640;139.748;2022-10-17T11:51:14;100684.83;;;23.99;47.41
64115;BME280;62188;35.640;139.748;2022-10-17T11:53:46;100688.33;;;24.18;47.76
64115;BME280;62188;35.640;139.748;2022-10-17T11:56:03;100688.26;;;24.08;47.70
64115;BME280;62188;35.640;139.748;2022-10-17T11:58:35;100681.82;;;24.01;47.55
64115;BME280;62188;35.640;139.748;2022-10-17T12:01:05;100677.85;;;23.81;48.15
64115;BME280;62188;35.640;139.748;2022-10-17T12:03:30;100683.76;;;23.78;48.38
64115;BME280;62188;35.640;139.748;2022-10-17T12:05:49;100686.89;;;23.83;47.98
64115;BME280;62188;35.640;139.748;2022-10-17T12:08:19;100686.34;;;23.56;47.96
64115;BME280;62188;35.640;139.748;2022-10-17T12:10:44;100680.65;;;23.78;48.04
64115;BME280;62188;35.640;139.748;2022-10-17T12:15:30;100679.37;;;23.75;48.03
64115;BME280;62188;35.640;139.748;2022-10-17T12:17:56;100681.14;;;23.68;47.74
64115;BME280;62188;35.640;139.748;2022-10-17T12:20:26;100679.47;;;23.60;47.88
64115;BME280;62188;35.640;139.748;2022-10-17T12:22:47;100680.85;;;23.79;47.99
64115;BME280;62188;35.640;139.748;2022-10-17T12:25:15;100687.28;;;23.55;47.99
64115;BME280;62188;35.640;139.748;2022-10-17T12:27:38;100683.98;;;23.48;48.27
64115;BME280;62188;35.640;139.748;2022-10-17T12:30:00;100678.39;;;23.50;48.59
64115;BME280;62188;35.640;139.748;2022-10-17T12:32:23;100674.01;;;23.79;48.67
64115;BME280;62188;35.640;139.748;2022-10-17T12:34:52;100678.64;;;23.61;48.61
64115;BME280;62188;35.640;139.748;2022-10-17T12:37:14;100680.76;;;23.63;48.53
64115;BME280;62188;35.640;139.748;2022-10-17T12:39:43;100682.80;;;23.61;48.49